Accueil
METAR-TAF:

METAR-TAF

Aéroports :

Aéroport international de Koweït

Koweït, Koweït

latitude: 29-13N, longitude: 047-59E, altitude: 55 m

Observation

Le bulletin a été fait il y a 17 minutes, à 11:00 UTC
Vent 17 kt de nord
Température 45°C
Humidité 10%
Pression 999 hPa
Visibilité: 8000 m
Ciel clair
(faible) , poussière généralisée

METAR: OKBK 201100Z 35017KT 8000 -BLDU SKC 45/07 Q0999 NOSIG

Heure: 14:17 (11:17 UTC)

Prévision

Le bulletin a été fait il y a 6 heures et 32 minutes, à 04:45 UTC
Prévision valable du 20 à 06 UTC au 21 à 12 UTC
Vent 10 kt de nord/nord-ouest avec des rafales jusqu'à 20 kt
Visibilité: 7000 m
Ciel clair

TAF: OKBK 200445Z 2006/2112 34010G20KT 7000 SKC

Observations et prévisions météorologiques de plus de 4000 aéroports (messages METAR et TAF).

Les stations disponibles sont représentées par des disques jaunes et rouges sur la carte.

Passer la souris dessus pour voir le nom de la station.

Cliquer dessus pour voir les observations et prévisions météorologiques.

Pour changer de carte: cliquez sur les boutons verts avec une croix noire pour zoomer, sur le bouton vert avec un tiret pour effectuer un zoom arrière, ou sur les flèches vertes pour les cartes adjacentes.


METAR-TAF: